sensor_id;sensor_type;location;lat;lon;timestamp;temperature;humidity
37998;DHT22;24079;51.824;4.682;2022-12-28T00:00:55;7.60;99.90
37998;DHT22;24079;51.824;4.682;2022-12-28T00:03:29;7.60;99.90
37998;DHT22;24079;51.824;4.682;2022-12-28T00:05:55;7.60;99.90
37998;DHT22;24079;51.824;4.682;2022-12-28T00:08:21;7.60;99.90
37998;DHT22;24079;51.824;4.682;2022-12-28T00:10:47;7.60;99.90
37998;DHT22;24079;51.824;4.682;2022-12-28T00:13:13;7.60;99.90
37998;DHT22;24079;51.824;4.682;2022-12-28T00:15:39;7.70;99.90
37998;DHT22;24079;51.824;4.682;2022-12-28T00:18:05;7.60;99.90
37998;DHT22;24079;51.824;4.682;2022-12-28T00:20:31;7.60;99.90
37998;DHT22;24079;51.824;4.682;2022-12-28T00:22:57;7.70;99.90
37998;DHT22;24079;51.824;4.682;2022-12-28T00:25:23;7.70;99.90
37998;DHT22;24079;51.824;4.682;2022-12-28T00:27:49;7.70;99.90
37998;DHT22;24079;51.824;4.682;2022-12-28T00:30:15;7.80;99.90
37998;DHT22;24079;51.824;4.682;2022-12-28T00:32:41;7.80;99.90
37998;DHT22;24079;51.824;4.682;2022-12-28T00:35:07;7.80;99.90
37998;DHT22;24079;51.824;4.682;2022-12-28T00:37:32;7.90;99.90
37998;DHT22;24079;51.824;4.682;2022-12-28T00:39:58;7.80;99.90
37998;DHT22;24079;51.824;4.682;2022-12-28T00:42:24;7.90;99.90
37998;DHT22;24079;51.824;4.682;2022-12-28T00:44:50;7.90;99.90
37998;DHT22;24079;51.824;4.682;2022-12-28T00:47:16;7.90;99.90
37998;DHT22;24079;51.824;4.682;2022-12-28T00:49:43;7.90;99.90
37998;DHT22;24079;51.824;4.682;2022-12-28T00:52:09;7.90;99.90
37998;DHT22;24079;51.824;4.682;2022-12-28T00:54:35;7.90;99.90
37998;DHT22;24079;51.824;4.682;2022-12-28T00:57:01;7.90;99.90
37998;DHT22;24079;51.824;4.682;2022-12-28T00:59:27;8.00;99.90
37998;DHT22;24079;51.824;4.682;2022-12-28T01:01:53;8.00;99.90
37998;DHT22;24079;51.824;4.682;2022-12-28T01:04:19;8.00;99.90
37998;DHT22;24079;51.824;4.682;2022-12-28T01:06:45;8.10;99.90
37998;DHT22;24079;51.824;4.682;2022-12-28T01:09:10;8.10;99.90
37998;DHT22;24079;51.824;4.682;2022-12-28T01:11:36;8.10;99.90
37998;DHT22;24079;51.824;4.682;2022-12-28T01:14:03;8.20;99.90
37998;DHT22;24079;51.824;4.682;2022-12-28T01:16:33;8.20;99.90
37998;DHT22;24079;51.824;4.682;2022-12-28T01:19:02;8.20;99.90
37998;DHT22;24079;51.824;4.682;2022-12-28T01:21:31;8.20;99.90
37998;DHT22;24079;51.824;4.682;2022-12-28T01:24:00;8.20;99.90
37998;DHT22;24079;51.824;4.682;2022-12-28T01:26:27;8.30;99.90
37998;DHT22;24079;51.824;4.682;2022-12-28T01:28:54;8.30;99.90
37998;DHT22;24079;51.824;4.682;2022-12-28T01:31:20;8.20;99.90
37998;DHT22;24079;51.824;4.682;2022-12-28T01:33:47;8.30;99.90
37998;DHT22;24079;51.824;4.682;2022-12-28T01:36:24;8.30;99.90
37998;DHT22;24079;51.824;4.682;2022-12-28T01:38:58;8.30;99.90
37998;DHT22;24079;51.824;4.682;2022-12-28T01:41:27;8.30;99.90
37998;DHT22;24079;51.824;4.682;2022-12-28T01:49:10;8.30;99.90
37998;DHT22;24079;51.824;4.682;2022-12-28T01:54:28;8.30;99.90
37998;DHT22;24079;51.824;4.682;2022-12-28T01:56:56;8.30;99.90
37998;DHT22;24079;51.824;4.682;2022-12-28T01:59:25;8.30;99.90
37998;DHT22;24079;51.824;4.682;2022-12-28T02:01:53;8.30;99.90
37998;DHT22;24079;51.824;4.682;2022-12-28T02:04:20;8.40;99.90
37998;DHT22;24079;51.824;4.682;2022-12-28T02:06:46;8.40;99.90
37998;DHT22;24079;51.824;4.682;2022-12-28T02:09:18;8.40;99.90
37998;DHT22;24079;51.824;4.682;2022-12-28T02:11:46;8.40;99.90
37998;DHT22;24079;51.824;4.682;2022-12-28T02:14:13;8.40;99.90
37998;DHT22;24079;51.824;4.682;2022-12-28T02:16:40;8.40;99.90
37998;DHT22;24079;51.824;4.682;2022-12-28T02:19:12;8.40;99.90
37998;DHT22;24079;51.824;4.682;2022-12-28T02:31:01;8.40;99.90
37998;DHT22;24079;51.824;4.682;2022-12-28T02:33:41;8.40;99.90
37998;DHT22;24079;51.824;4.682;2022-12-28T02:36:18;8.40;99.90
37998;DHT22;24079;51.824;4.682;2022-12-28T02:38:50;8.40;99.90
37998;DHT22;24079;51.824;4.682;2022-12-28T02:41:18;8.40;99.90
37998;DHT22;24079;51.824;4.682;2022-12-28T02:43:45;8.50;99.90
37998;DHT22;24079;51.824;4.682;2022-12-28T02:46:17;8.50;99.90
37998;DHT22;24079;51.824;4.682;2022-12-28T02:49:25;8.50;99.90
37998;DHT22;24079;51.824;4.682;2022-12-28T03:03:31;8.80;99.90
37998;DHT22;24079;51.824;4.682;2022-12-28T03:06:11;8.80;99.90
37998;DHT22;24079;51.824;4.682;2022-12-28T03:14:20;8.90;99.90
37998;DHT22;24079;51.824;4.682;2022-12-28T03:16:49;8.90;99.90
37998;DHT22;24079;51.824;4.682;2022-12-28T03:19:48;8.90;99.90
37998;DHT22;24079;51.824;4.682;2022-12-28T03:22:36;8.90;99.90
37998;DHT22;24079;51.824;4.682;2022-12-28T03:25:23;9.00;99.90
37998;DHT22;24079;51.824;4.682;2022-12-28T03:28:10;9.00;99.90
37998;DHT22;24079;51.824;4.682;2022-12-28T03:31:01;9.00;99.90
37998;DHT22;24079;51.824;4.682;2022-12-28T03:33:37;9.00;99.90
37998;DHT22;24079;51.824;4.682;2022-12-28T03:36:29;9.00;99.90
37998;DHT22;24079;51.824;4.682;2022-12-28T03:41:57;9.00;99.90
37998;DHT22;24079;51.824;4.682;2022-12-28T03:44:49;9.00;99.90
37998;DHT22;24079;51.824;4.682;2022-12-28T03:47:17;9.00;99.90
37998;DHT22;24079;51.824;4.682;2022-12-28T03:49:45;9.00;99.90
37998;DHT22;24079;51.824;4.682;2022-12-28T03:52:11;9.00;99.90
37998;DHT22;24079;51.824;4.682;2022-12-28T03:54:39;9.10;99.90
37998;DHT22;24079;51.824;4.682;2022-12-28T03:57:04;9.10;99.90
37998;DHT22;24079;51.824;4.682;2022-12-28T03:59:30;9.10;99.90
37998;DHT22;24079;51.824;4.682;2022-12-28T04:01:56;9.10;99.90
37998;DHT22;24079;51.824;4.682;2022-12-28T04:04:21;9.10;99.90
37998;DHT22;24079;51.824;4.682;2022-12-28T04:06:47;9.10;99.90
37998;DHT22;24079;51.824;4.682;2022-12-28T04:09:12;9.10;99.90
37998;DHT22;24079;51.824;4.682;2022-12-28T04:11:38;9.20;99.90
37998;DHT22;24079;51.824;4.682;2022-12-28T04:14:03;9.10;99.90
37998;DHT22;24079;51.824;4.682;2022-12-28T04:16:30;9.10;99.90
37998;DHT22;24079;51.824;4.682;2022-12-28T04:18:56;9.10;99.90
37998;DHT22;24079;51.824;4.682;2022-12-28T04:21:22;9.20;99.90
37998;DHT22;24079;51.824;4.682;2022-12-28T04:23:48;9.20;99.90
37998;DHT22;24079;51.824;4.682;2022-12-28T04:26:15;9.20;99.90
37998;DHT22;24079;51.824;4.682;2022-12-28T04:28:42;9.30;99.90
37998;DHT22;24079;51.824;4.682;2022-12-28T04:31:10;9.30;99.90
37998;DHT22;24079;51.824;4.682;2022-12-28T04:33:37;9.30;99.90
37998;DHT22;24079;51.824;4.682;2022-12-28T04:36:14;9.30;99.90
37998;DHT22;24079;51.824;4.682;2022-12-28T04:38:40;9.30;99.90
37998;DHT22;24079;51.824;4.682;2022-12-28T04:41:07;9.30;99.90
37998;DHT22;24079;51.824;4.682;2022-12-28T04:43:34;9.40;99.90
37998;DHT22;24079;51.824;4.682;2022-12-28T04:46:03;9.40;99.90
37998;DHT22;24079;51.824;4.682;2022-12-28T04:48:29;9.40;99.90
37998;DHT22;24079;51.824;4.682;2022-12-28T04:50:56;9.50;99.90
37998;DHT22;24079;51.824;4.682;2022-12-28T04:53:22;9.50;99.90
37998;DHT22;24079;51.824;4.682;2022-12-28T04:55:49;9.50;99.90
37998;DHT22;24079;51.824;4.682;2022-12-28T04:58:15;9.50;99.90
37998;DHT22;24079;51.824;4.682;2022-12-28T05:00:41;9.50;99.90
37998;DHT22;24079;51.824;4.682;2022-12-28T05:03:07;9.50;99.90
37998;DHT22;24079;51.824;4.682;2022-12-28T05:05:33;9.50;99.90
37998;DHT22;24079;51.824;4.682;2022-12-28T05:08:01;9.60;99.90
37998;DHT22;24079;51.824;4.682;2022-12-28T05:10:28;9.50;99.90
37998;DHT22;24079;51.824;4.682;2022-12-28T05:12:55;9.50;99.90
37998;DHT22;24079;51.824;4.682;2022-12-28T05:15:21;9.60;99.90
37998;DHT22;24079;51.824;4.682;2022-12-28T05:17:47;9.60;99.90
37998;DHT22;24079;51.824;4.682;2022-12-28T05:20:13;9.60;99.90
37998;DHT22;24079;51.824;4.682;2022-12-28T05:22:40;9.60;99.90
37998;DHT22;24079;51.824;4.682;2022-12-28T05:25:07;9.60;99.90
37998;DHT22;24079;51.824;4.682;2022-12-28T05:27:33;9.70;99.90
37998;DHT22;24079;51.824;4.682;2022-12-28T05:29:59;9.60;99.90
37998;DHT22;24079;51.824;4.682;2022-12-28T05:32:25;9.60;99.90
37998;DHT22;24079;51.824;4.682;2022-12-28T05:34:51;9.60;99.90
37998;DHT22;24079;51.824;4.682;2022-12-28T05:37:17;9.60;99.90
37998;DHT22;24079;51.824;4.682;2022-12-28T05:39:44;9.60;99.90
37998;DHT22;24079;51.824;4.682;2022-12-28T05:42:10;9.70;99.90
37998;DHT22;24079;51.824;4.682;2022-12-28T05:44:35;9.70;99.90
37998;DHT22;24079;51.824;4.682;2022-12-28T05:47:01;9.60;99.90
37998;DHT22;24079;51.824;4.682;2022-12-28T05:49:26;9.70;99.90
37998;DHT22;24079;51.824;4.682;2022-12-28T05:51:52;9.70;99.90
37998;DHT22;24079;51.824;4.682;2022-12-28T05:54:18;9.70;99.90
37998;DHT22;24079;51.824;4.682;2022-12-28T05:56:44;9.70;99.90
37998;DHT22;24079;51.824;4.682;2022-12-28T05:59:10;9.70;99.90
37998;DHT22;24079;51.824;4.682;2022-12-28T06:01:39;9.70;99.90
37998;DHT22;24079;51.824;4.682;2022-12-28T06:04:18;9.70;99.90
37998;DHT22;24079;51.824;4.682;2022-12-28T06:06:45;9.80;99.90
37998;DHT22;24079;51.824;4.682;2022-12-28T06:09:12;9.80;99.90
37998;DHT22;24079;51.824;4.682;2022-12-28T06:11:37;9.80;99.90
37998;DHT22;24079;51.824;4.682;2022-12-28T06:14:03;9.80;99.90
37998;DHT22;24079;51.824;4.682;2022-12-28T06:16:33;9.80;99.90
37998;DHT22;24079;51.824;4.682;2022-12-28T06:19:03;9.80;99.90
37998;DHT22;24079;51.824;4.682;2022-12-28T06:21:31;9.80;99.90
37998;DHT22;24079;51.824;4.682;2022-12-28T06:23:58;9.80;99.90
37998;DHT22;24079;51.824;4.682;2022-12-28T06:26:26;9.80;99.90
37998;DHT22;24079;51.824;4.682;2022-12-28T06:28:52;9.80;99.90
37998;DHT22;24079;51.824;4.682;2022-12-28T06:31:22;9.80;99.90
37998;DHT22;24079;51.824;4.682;2022-12-28T06:33:49;9.80;99.90
37998;DHT22;24079;51.824;4.682;2022-12-28T06:36:24;9.80;99.90
37998;DHT22;24079;51.824;4.682;2022-12-28T06:38:51;9.80;99.90
37998;DHT22;24079;51.824;4.682;2022-12-28T06:41:18;9.80;99.90
37998;DHT22;24079;51.824;4.682;2022-12-28T06:43:45;9.80;99.90
37998;DHT22;24079;51.824;4.682;2022-12-28T06:46:12;9.80;99.90
37998;DHT22;24079;51.824;4.682;2022-12-28T06:48:38;9.80;99.90
37998;DHT22;24079;51.824;4.682;2022-12-28T06:51:14;9.80;99.90
37998;DHT22;24079;51.824;4.682;2022-12-28T06:53:40;9.80;99.90
37998;DHT22;24079;51.824;4.682;2022-12-28T06:56:09;9.80;99.90
37998;DHT22;24079;51.824;4.682;2022-12-28T06:58:36;9.80;99.90
37998;DHT22;24079;51.824;4.682;2022-12-28T07:01:06;9.80;99.90
37998;DHT22;24079;51.824;4.682;2022-12-28T07:03:32;9.90;99.90
37998;DHT22;24079;51.824;4.682;2022-12-28T07:06:02;9.90;99.90
37998;DHT22;24079;51.824;4.682;2022-12-28T07:08:28;9.90;99.90
37998;DHT22;24079;51.824;4.682;2022-12-28T07:10:54;9.90;99.90
37998;DHT22;24079;51.824;4.682;2022-12-28T07:13:20;10.00;99.90
37998;DHT22;24079;51.824;4.682;2022-12-28T07:15:46;10.00;99.90
37998;DHT22;24079;51.824;4.682;2022-12-28T07:18:11;9.90;99.90
37998;DHT22;24079;51.824;4.682;2022-12-28T07:20:37;9.90;99.90
37998;DHT22;24079;51.824;4.682;2022-12-28T07:23:02;10.00;99.90
37998;DHT22;24079;51.824;4.682;2022-12-28T07:25:28;9.90;99.90
37998;DHT22;24079;51.824;4.682;2022-12-28T07:27:54;9.90;99.90
37998;DHT22;24079;51.824;4.682;2022-12-28T07:30:20;9.90;99.90
37998;DHT22;24079;51.824;4.682;2022-12-28T07:32:46;9.90;99.90
37998;DHT22;24079;51.824;4.682;2022-12-28T07:35:12;9.90;99.90
37998;DHT22;24079;51.824;4.682;2022-12-28T07:37:38;9.90;99.90
37998;DHT22;24079;51.824;4.682;2022-12-28T07:40:04;10.00;99.90
37998;DHT22;24079;51.824;4.682;2022-12-28T07:42:30;10.00;99.90
37998;DHT22;24079;51.824;4.682;2022-12-28T07:44:56;10.00;99.90
37998;DHT22;24079;51.824;4.682;2022-12-28T07:47:23;10.00;99.90
37998;DHT22;24079;51.824;4.682;2022-12-28T07:49:49;10.00;99.90
37998;DHT22;24079;51.824;4.682;2022-12-28T07:52:15;10.00;99.90
37998;DHT22;24079;51.824;4.682;2022-12-28T07:54:41;10.00;99.90
37998;DHT22;24079;51.824;4.682;2022-12-28T07:57:07;10.00;99.90
37998;DHT22;24079;51.824;4.682;2022-12-28T07:59:32;10.00;99.90
37998;DHT22;24079;51.824;4.682;2022-12-28T08:01:58;10.00;99.90
37998;DHT22;24079;51.824;4.682;2022-12-28T08:04:24;10.10;99.90
37998;DHT22;24079;51.824;4.682;2022-12-28T08:06:49;10.10;99.90
37998;DHT22;24079;51.824;4.682;2022-12-28T08:09:15;10.00;99.90
37998;DHT22;24079;51.824;4.682;2022-12-28T08:11:43;10.00;99.90
37998;DHT22;24079;51.824;4.682;2022-12-28T08:14:09;10.00;99.90
37998;DHT22;24079;51.824;4.682;2022-12-28T08:16:41;10.00;99.90
37998;DHT22;24079;51.824;4.682;2022-12-28T08:19:07;10.00;99.90
37998;DHT22;24079;51.824;4.682;2022-12-28T08:21:39;10.00;99.90
37998;DHT22;24079;51.824;4.682;2022-12-28T08:24:06;10.00;99.90
37998;DHT22;24079;51.824;4.682;2022-12-28T08:26:35;10.00;99.90
37998;DHT22;24079;51.824;4.682;2022-12-28T08:29:03;10.00;99.90
37998;DHT22;24079;51.824;4.682;2022-12-28T08:31:32;10.00;99.90
37998;DHT22;24079;51.824;4.682;2022-12-28T08:33:59;10.00;99.90
37998;DHT22;24079;51.824;4.682;2022-12-28T08:36:25;9.90;99.90
37998;DHT22;24079;51.824;4.682;2022-12-28T08:38:51;10.00;99.90
37998;DHT22;24079;51.824;4.682;2022-12-28T08:41:22;10.00;99.90
37998;DHT22;24079;51.824;4.682;2022-12-28T08:43:48;10.00;99.90
37998;DHT22;24079;51.824;4.682;2022-12-28T08:46:25;10.00;99.90
37998;DHT22;24079;51.824;4.682;2022-12-28T08:48:53;10.00;99.90
37998;DHT22;24079;51.824;4.682;2022-12-28T08:51:22;10.00;99.90
37998;DHT22;24079;51.824;4.682;2022-12-28T08:53:49;10.00;99.90
37998;DHT22;24079;51.824;4.682;2022-12-28T08:56:29;10.10;99.90
37998;DHT22;24079;51.824;4.682;2022-12-28T08:58:56;10.10;99.90
37998;DHT22;24079;51.824;4.682;2022-12-28T09:01:26;10.10;99.90
37998;DHT22;24079;51.824;4.682;2022-12-28T09:03:54;10.10;99.90
37998;DHT22;24079;51.824;4.682;2022-12-28T09:06:24;10.10;99.90
37998;DHT22;24079;51.824;4.682;2022-12-28T09:08:54;10.10;99.90
37998;DHT22;24079;51.824;4.682;2022-12-28T09:11:20;10.10;99.90
37998;DHT22;24079;51.824;4.682;2022-12-28T09:13:46;10.20;99.90
37998;DHT22;24079;51.824;4.682;2022-12-28T09:16:15;10.20;99.90
37998;DHT22;24079;51.824;4.682;2022-12-28T09:18:42;10.20;99.90
37998;DHT22;24079;51.824;4.682;2022-12-28T09:23:36;10.20;99.90
37998;DHT22;24079;51.824;4.682;2022-12-28T09:26:14;10.30;99.90
37998;DHT22;24079;51.824;4.682;2022-12-28T09:28:45;10.30;99.90
37998;DHT22;24079;51.824;4.682;2022-12-28T09:31:11;10.30;99.90
37998;DHT22;24079;51.824;4.682;2022-12-28T09:33:38;10.30;99.90
37998;DHT22;24079;51.824;4.682;2022-12-28T09:36:22;10.30;99.90
37998;DHT22;24079;51.824;4.682;2022-12-28T09:38:49;10.30;99.90
37998;DHT22;24079;51.824;4.682;2022-12-28T09:49:25;10.40;99.90
37998;DHT22;24079;51.824;4.682;2022-12-28T09:54:39;10.40;99.90
37998;DHT22;24079;51.824;4.682;2022-12-28T09:57:13;10.40;99.90
37998;DHT22;24079;51.824;4.682;2022-12-28T09:59:40;10.40;99.90
37998;DHT22;24079;51.824;4.682;2022-12-28T10:02:18;10.40;99.90
37998;DHT22;24079;51.824;4.682;2022-12-28T10:04:48;10.40;99.90
37998;DHT22;24079;51.824;4.682;2022-12-28T10:07:14;10.40;99.90
37998;DHT22;24079;51.824;4.682;2022-12-28T10:09:40;10.40;99.90
37998;DHT22;24079;51.824;4.682;2022-12-28T10:12:15;10.40;99.90
37998;DHT22;24079;51.824;4.682;2022-12-28T10:14:45;10.40;99.90
37998;DHT22;24079;51.824;4.682;2022-12-28T10:17:13;10.40;99.90
37998;DHT22;24079;51.824;4.682;2022-12-28T10:19:40;10.30;99.90
37998;DHT22;24079;51.824;4.682;2022-12-28T10:22:26;10.30;99.90
37998;DHT22;24079;51.824;4.682;2022-12-28T10:25:00;10.20;99.90
37998;DHT22;24079;51.824;4.682;2022-12-28T10:27:30;10.20;99.90
37998;DHT22;24079;51.824;4.682;2022-12-28T10:29:59;10.20;99.90
37998;DHT22;24079;51.824;4.682;2022-12-28T10:32:26;10.10;99.90
37998;DHT22;24079;51.824;4.682;2022-12-28T10:35:03;10.10;99.90
37998;DHT22;24079;51.824;4.682;2022-12-28T10:37:31;10.10;99.90
37998;DHT22;24079;51.824;4.682;2022-12-28T10:40:02;10.10;99.90
37998;DHT22;24079;51.824;4.682;2022-12-28T10:42:33;10.00;99.90
37998;DHT22;24079;51.824;4.682;2022-12-28T10:45:04;10.00;99.90
37998;DHT22;24079;51.824;4.682;2022-12-28T10:47:34;10.00;99.90
37998;DHT22;24079;51.824;4.682;2022-12-28T10:50:02;10.00;99.90
37998;DHT22;24079;51.824;4.682;2022-12-28T10:52:28;10.00;99.90
37998;DHT22;24079;51.824;4.682;2022-12-28T10:54:54;10.00;99.90
37998;DHT22;24079;51.824;4.682;2022-12-28T10:57:28;10.00;99.90
37998;DHT22;24079;51.824;4.682;2022-12-28T11:00:18;10.10;99.90
37998;DHT22;24079;51.824;4.682;2022-12-28T11:02:44;10.00;99.90
37998;DHT22;24079;51.824;4.682;2022-12-28T11:05:22;10.10;99.90
37998;DHT22;24079;51.824;4.682;2022-12-28T11:07:49;10.00;99.90
37998;DHT22;24079;51.824;4.682;2022-12-28T11:10:28;10.00;99.90
37998;DHT22;24079;51.824;4.682;2022-12-28T11:12:59;10.00;99.90
37998;DHT22;24079;51.824;4.682;2022-12-28T11:15:30;10.00;99.90
37998;DHT22;24079;51.824;4.682;2022-12-28T11:18:06;10.00;99.90
37998;DHT22;24079;51.824;4.682;2022-12-28T11:20:38;10.00;99.90
37998;DHT22;24079;51.824;4.682;2022-12-28T11:23:07;10.00;99.90
37998;DHT22;24079;51.824;4.682;2022-12-28T11:25:35;10.00;99.90
37998;DHT22;24079;51.824;4.682;2022-12-28T11:28:21;10.00;99.90
37998;DHT22;24079;51.824;4.682;2022-12-28T11:30:49;9.90;99.90
37998;DHT22;24079;51.824;4.682;2022-12-28T11:35:56;10.00;99.90
37998;DHT22;24079;51.824;4.682;2022-12-28T11:38:37;9.90;99.90
37998;DHT22;24079;51.824;4.682;2022-12-28T11:41:05;10.00;99.90
37998;DHT22;24079;51.824;4.682;2022-12-28T11:43:48;9.90;99.90
37998;DHT22;24079;51.824;4.682;2022-12-28T11:51:33;9.90;99.90
37998;DHT22;24079;51.824;4.682;2022-12-28T11:54:36;9.90;99.90
37998;DHT22;24079;51.824;4.682;2022-12-28T11:57:02;10.00;99.90
37998;DHT22;24079;51.824;4.682;2022-12-28T11:59:35;9.90;99.90
37998;DHT22;24079;51.824;4.682;2022-12-28T12:04:46;10.00;99.90
37998;DHT22;24079;51.824;4.682;2022-12-28T12:07:21;10.00;99.90
37998;DHT22;24079;51.824;4.682;2022-12-28T12:10:50;10.00;99.90
37998;DHT22;24079;51.824;4.682;2022-12-28T12:13:00;10.00;99.90
37998;DHT22;24079;51.824;4.682;2022-12-28T12:15:38;10.10;99.90
37998;DHT22;24079;51.824;4.682;2022-12-28T12:18:06;10.10;99.90
37998;DHT22;24079;51.824;4.682;2022-12-28T12:20:50;10.10;99.90
37998;DHT22;24079;51.824;4.682;2022-12-28T12:28:52;10.20;99.90
37998;DHT22;24079;51.824;4.682;2022-12-28T12:31:29;10.20;99.90
37998;DHT22;24079;51.824;4.682;2022-12-28T12:34:02;10.30;99.90
37998;DHT22;24079;51.824;4.682;2022-12-28T12:48:09;10.30;99.90
37998;DHT22;24079;51.824;4.682;2022-12-28T12:56:10;10.40;99.90
37998;DHT22;24079;51.824;4.682;2022-12-28T13:04:28;10.40;99.90
37998;DHT22;24079;51.824;4.682;2022-12-28T13:07:02;10.40;99.90
37998;DHT22;24079;51.824;4.682;2022-12-28T13:09:29;10.40;99.90
37998;DHT22;24079;51.824;4.682;2022-12-28T13:11:58;10.50;99.90
37998;DHT22;24079;51.824;4.682;2022-12-28T13:14:24;10.40;99.90
37998;DHT22;24079;51.824;4.682;2022-12-28T13:16:53;10.40;99.90
37998;DHT22;24079;51.824;4.682;2022-12-28T13:19:22;10.40;99.90
37998;DHT22;24079;51.824;4.682;2022-12-28T13:21:49;10.50;99.90
37998;DHT22;24079;51.824;4.682;2022-12-28T13:24:19;10.50;99.90
37998;DHT22;24079;51.824;4.682;2022-12-28T13:26:45;10.50;99.90
37998;DHT22;24079;51.824;4.682;2022-12-28T13:29:16;10.60;99.90
37998;DHT22;24079;51.824;4.682;2022-12-28T13:31:42;10.60;99.90
37998;DHT22;24079;51.824;4.682;2022-12-28T13:34:30;10.60;99.90
37998;DHT22;24079;51.824;4.682;2022-12-28T13:37:21;10.70;99.90
37998;DHT22;24079;51.824;4.682;2022-12-28T13:39:46;10.80;99.90
37998;DHT22;24079;51.824;4.682;2022-12-28T13:44:55;10.80;99.90
37998;DHT22;24079;51.824;4.682;2022-12-28T13:47:23;10.80;99.90
37998;DHT22;24079;51.824;4.682;2022-12-28T13:52:30;10.80;99.90
37998;DHT22;24079;51.824;4.682;2022-12-28T13:54:59;10.80;99.90
37998;DHT22;24079;51.824;4.682;2022-12-28T13:57:28;10.80;99.90
37998;DHT22;24079;51.824;4.682;2022-12-28T13:59:55;10.80;99.90
37998;DHT22;24079;51.824;4.682;2022-12-28T14:02:22;10.90;99.90
37998;DHT22;24079;51.824;4.682;2022-12-28T14:04:50;10.90;99.90
37998;DHT22;24079;51.824;4.682;2022-12-28T14:07:19;10.80;99.90
37998;DHT22;24079;51.824;4.682;2022-12-28T14:09:46;10.90;99.90
37998;DHT22;24079;51.824;4.682;2022-12-28T14:12:13;10.90;99.90
37998;DHT22;24079;51.824;4.682;2022-12-28T14:14:40;10.90;99.90
37998;DHT22;24079;51.824;4.682;2022-12-28T14:17:08;10.90;99.90
37998;DHT22;24079;51.824;4.682;2022-12-28T14:19:35;10.90;99.90
37998;DHT22;24079;51.824;4.682;2022-12-28T14:22:01;10.90;99.90
37998;DHT22;24079;51.824;4.682;2022-12-28T14:24:27;10.90;99.90
37998;DHT22;24079;51.824;4.682;2022-12-28T14:26:55;10.80;99.90
37998;DHT22;24079;51.824;4.682;2022-12-28T14:29:33;10.80;99.90
37998;DHT22;24079;51.824;4.682;2022-12-28T14:32:04;10.80;99.90
37998;DHT22;24079;51.824;4.682;2022-12-28T14:34:33;10.80;99.90
37998;DHT22;24079;51.824;4.682;2022-12-28T14:37:00;10.80;99.90
37998;DHT22;24079;51.824;4.682;2022-12-28T14:42:00;10.90;99.90
37998;DHT22;24079;51.824;4.682;2022-12-28T14:44:32;10.90;99.90
37998;DHT22;24079;51.824;4.682;2022-12-28T14:46:59;10.90;99.90
37998;DHT22;24079;51.824;4.682;2022-12-28T14:55:33;10.90;99.90
37998;DHT22;24079;51.824;4.682;2022-12-28T14:57:40;10.90;99.90
37998;DHT22;24079;51.824;4.682;2022-12-28T15:02:49;10.90;99.90
37998;DHT22;24079;51.824;4.682;2022-12-28T15:05:38;10.90;99.90
37998;DHT22;24079;51.824;4.682;2022-12-28T15:08:06;10.80;99.90
37998;DHT22;24079;51.824;4.682;2022-12-28T15:10:35;10.80;99.90
37998;DHT22;24079;51.824;4.682;2022-12-28T15:13:03;10.80;99.90
37998;DHT22;24079;51.824;4.682;2022-12-28T15:15:30;10.80;99.90
37998;DHT22;24079;51.824;4.682;2022-12-28T15:17:56;10.80;99.90
37998;DHT22;24079;51.824;4.682;2022-12-28T15:20:22;10.80;99.90
37998;DHT22;24079;51.824;4.682;2022-12-28T15:22:48;10.80;99.90
37998;DHT22;24079;51.824;4.682;2022-12-28T15:25:14;10.70;99.90
37998;DHT22;24079;51.824;4.682;2022-12-28T15:27:40;10.60;99.90
37998;DHT22;24079;51.824;4.682;2022-12-28T15:30:07;10.60;99.90
37998;DHT22;24079;51.824;4.682;2022-12-28T15:32:33;10.60;99.90
37998;DHT22;24079;51.824;4.682;2022-12-28T15:34:59;10.50;99.90
37998;DHT22;24079;51.824;4.682;2022-12-28T15:37:25;10.50;99.90
37998;DHT22;24079;51.824;4.682;2022-12-28T15:39:51;10.40;99.90
37998;DHT22;24079;51.824;4.682;2022-12-28T15:42:17;10.40;99.90
37998;DHT22;24079;51.824;4.682;2022-12-28T15:44:43;10.40;99.90
37998;DHT22;24079;51.824;4.682;2022-12-28T15:47:11;10.40;99.90
37998;DHT22;24079;51.824;4.682;2022-12-28T15:49:37;10.40;99.90
37998;DHT22;24079;51.824;4.682;2022-12-28T15:52:03;10.40;99.90
37998;DHT22;24079;51.824;4.682;2022-12-28T15:54:29;10.40;99.90
37998;DHT22;24079;51.824;4.682;2022-12-28T15:56:55;10.30;99.90
37998;DHT22;24079;51.824;4.682;2022-12-28T15:59:22;10.30;99.90
37998;DHT22;24079;51.824;4.682;2022-12-28T16:01:48;10.40;99.90
37998;DHT22;24079;51.824;4.682;2022-12-28T16:04:14;10.30;99.90
37998;DHT22;24079;51.824;4.682;2022-12-28T16:06:40;10.30;99.90
37998;DHT22;24079;51.824;4.682;2022-12-28T16:09:06;10.20;99.90
37998;DHT22;24079;51.824;4.682;2022-12-28T16:11:32;10.20;99.90
37998;DHT22;24079;51.824;4.682;2022-12-28T16:14:01;10.20;99.90
37998;DHT22;24079;51.824;4.682;2022-12-28T16:16:29;10.20;99.90
37998;DHT22;24079;51.824;4.682;2022-12-28T16:18:56;10.30;99.90
37998;DHT22;24079;51.824;4.682;2022-12-28T16:21:26;10.20;99.90
37998;DHT22;24079;51.824;4.682;2022-12-28T16:23:52;10.10;99.90
37998;DHT22;24079;51.824;4.682;2022-12-28T16:26:20;10.20;99.90
37998;DHT22;24079;51.824;4.682;2022-12-28T16:28:46;10.20;99.90
37998;DHT22;24079;51.824;4.682;2022-12-28T16:34:02;10.20;99.90
37998;DHT22;24079;51.824;4.682;2022-12-28T16:36:28;10.10;99.90
37998;DHT22;24079;51.824;4.682;2022-12-28T16:38:55;10.10;99.90
37998;DHT22;24079;51.824;4.682;2022-12-28T16:41:21;10.10;99.90
37998;DHT22;24079;51.824;4.682;2022-12-28T16:43:48;10.10;99.90
37998;DHT22;24079;51.824;4.682;2022-12-28T16:46:14;10.10;99.90
37998;DHT22;24079;51.824;4.682;2022-12-28T16:48:42;10.10;99.90
37998;DHT22;24079;51.824;4.682;2022-12-28T16:51:08;10.10;99.90
37998;DHT22;24079;51.824;4.682;2022-12-28T16:53:36;10.10;99.90
37998;DHT22;24079;51.824;4.682;2022-12-28T16:56:04;10.10;99.90
37998;DHT22;24079;51.824;4.682;2022-12-28T16:58:31;10.10;99.90
37998;DHT22;24079;51.824;4.682;2022-12-28T17:01:02;10.10;99.90
37998;DHT22;24079;51.824;4.682;2022-12-28T17:03:28;10.00;99.90
37998;DHT22;24079;51.824;4.682;2022-12-28T17:05:54;10.00;99.90
37998;DHT22;24079;51.824;4.682;2022-12-28T17:08:19;10.00;99.90
37998;DHT22;24079;51.824;4.682;2022-12-28T17:10:45;10.00;99.90
37998;DHT22;24079;51.824;4.682;2022-12-28T17:13:11;10.00;99.90
37998;DHT22;24079;51.824;4.682;2022-12-28T17:15:39;10.00;99.90
37998;DHT22;24079;51.824;4.682;2022-12-28T17:18:05;10.00;99.90
37998;DHT22;24079;51.824;4.682;2022-12-28T17:20:34;10.00;99.90
37998;DHT22;24079;51.824;4.682;2022-12-28T17:22:59;10.00;99.90
37998;DHT22;24079;51.824;4.682;2022-12-28T17:25:25;10.00;99.90
37998;DHT22;24079;51.824;4.682;2022-12-28T17:27:52;10.00;99.90
37998;DHT22;24079;51.824;4.682;2022-12-28T17:30:18;10.00;99.90
37998;DHT22;24079;51.824;4.682;2022-12-28T17:32:44;9.90;99.90
37998;DHT22;24079;51.824;4.682;2022-12-28T17:35:09;10.00;99.90
37998;DHT22;24079;51.824;4.682;2022-12-28T17:37:35;9.90;99.90